Time;durP1;ratioP1;P1;durP2;ratioP2;P2;SDS_P1;SDS_P2;PMS_P1;PMS_P2;Temp;Humidity;BMP_temperature;BMP_pressure;BME280_temperature;BME280_humidity;BME280_pressure;Samples;Min_cycle;Max_cycle;Signal;HPM_P1;HPM_P2
2022/06/09 00:01:36;;;;;;;0.77;0.40;;;14.20;99.90;;;;;;5109179;28;20740;-85
2022/06/09 00:04:08;;;;;;;0.40;0.30;;;14.30;99.90;;;;;;5089095;28;20678;-85
2022/06/09 00:06:40;;;;;;;0.40;0.40;;;14.20;99.90;;;;;;5089706;28;20627;-85
2022/06/09 00:09:07;;;;;;;0.40;0.30;;;14.20;99.90;;;;;;5089642;28;20644;-85
2022/06/09 00:11:40;;;;;;;0.60;0.60;;;14.20;99.90;;;;;;5098331;28;20638;-85
2022/06/09 00:14:09;;;;;;;0.50;0.50;;;14.20;99.90;;;;;;5094720;28;20620;-84
2022/06/09 00:16:38;;;;;;;0.50;0.50;;;14.20;99.90;;;;;;5103739;28;20643;-85
2022/06/09 00:19:07;;;;;;;0.53;0.40;;;14.20;99.90;;;;;;5105239;28;20615;-85
2022/06/09 00:21:36;;;;;;;0.40;0.40;;;14.20;99.90;;;;;;5089355;28;21009;-85
2022/06/09 00:24:05;;;;;;;0.50;0.50;;;14.10;99.90;;;;;;5088932;28;20616;-86
2022/06/09 00:26:33;;;;;;;0.40;0.40;;;14.20;99.90;;;;;;5106386;28;20623;-85
2022/06/09 00:29:02;;;;;;;0.37;0.37;;;14.10;99.90;;;;;;5088458;28;21217;-85
2022/06/09 00:31:31;;;;;;;0.40;0.30;;;14.10;99.90;;;;;;5093002;28;20619;-85
2022/06/09 00:34:01;;;;;;;0.30;0.30;;;14.20;99.90;;;;;;5089499;28;20674;-85
2022/06/09 00:36:30;;;;;;;2.43;0.60;;;14.20;99.90;;;;;;5091836;28;20628;-85
2022/06/09 00:38:59;;;;;;;0.40;0.30;;;14.10;99.90;;;;;;5090159;28;20613;-85
2022/06/09 00:41:27;;;;;;;0.40;0.40;;;14.20;99.90;;;;;;5101912;28;21270;-85
2022/06/09 00:44:10;;;;;;;0.67;0.50;;;14.20;99.90;;;;;;5091282;28;20620;-85
2022/06/09 00:46:40;;;;;;;0.43;0.40;;;14.20;99.90;;;;;;5104205;28;20651;-85
2022/06/09 00:49:16;;;;;;;0.70;0.40;;;14.20;99.90;;;;;;5089765;28;20600;-85
2022/06/09 00:51:47;;;;;;;0.33;0.30;;;14.20;99.90;;;;;;5108499;28;20703;-86
2022/06/09 00:54:19;;;;;;;0.40;0.30;;;14.20;99.90;;;;;;5092306;28;20620;-85
2022/06/09 00:56:51;;;;;;;0.40;0.30;;;14.20;99.90;;;;;;5090373;28;20644;-86
2022/06/09 00:59:20;;;;;;;0.40;0.30;;;14.10;99.90;;;;;;5108675;28;20595;-85
2022/06/09 01:01:47;;;;;;;0.30;0.20;;;14.20;99.90;;;;;;5103471;28;20737;-85
2022/06/09 01:04:17;;;;;;;0.40;0.20;;;14.10;99.90;;;;;;5097297;28;20608;-87
2022/06/09 01:06:49;;;;;;;0.30;0.20;;;14.10;99.90;;;;;;5104628;28;20693;-86
2022/06/09 01:09:19;;;;;;;2.50;0.40;;;14.10;99.90;;;;;;5095553;28;21168;-84
2022/06/09 01:11:47;;;;;;;0.30;0.20;;;14.10;99.90;;;;;;5088738;28;20702;-85
2022/06/09 01:14:20;;;;;;;0.40;0.30;;;14.00;99.90;;;;;;5094574;28;20623;-85
2022/06/09 01:16:57;;;;;;;0.47;0.33;;;13.90;99.90;;;;;;5097954;28;20640;-83
2022/06/09 01:19:49;;;;;;;0.40;0.40;;;13.90;99.90;;;;;;5102246;28;21204;-85
2022/06/09 01:22:33;;;;;;;0.50;0.50;;;13.80;99.90;;;;;;5106241;28;20968;-85
2022/06/09 01:25:41;;;;;;;0.80;0.50;;;13.80;99.90;;;;;;5108433;28;20953;-85
2022/06/09 01:28:42;;;;;;;0.30;0.23;;;13.80;99.90;;;;;;5094483;28;21178;-84
2022/06/09 01:31:19;;;;;;;0.30;0.20;;;13.80;99.90;;;;;;5072313;28;20685;-84
2022/06/09 01:33:54;;;;;;;0.37;0.27;;;13.80;99.90;;;;;;5103472;28;20620;-84
2022/06/09 01:36:27;;;;;;;0.30;0.30;;;13.80;99.90;;;;;;5094753;28;20628;-84
2022/06/09 01:38:58;;;;;;;0.40;0.30;;;13.80;99.90;;;;;;5089890;28;21231;-85
2022/06/09 01:41:26;;;;;;;0.37;0.20;;;13.70;99.90;;;;;;5102336;28;20835;-85
2022/06/09 01:43:56;;;;;;;0.50;0.47;;;13.70;99.90;;;;;;5102847;28;20718;-85
2022/06/09 01:46:29;;;;;;;0.40;0.30;;;13.70;99.90;;;;;;5088508;28;20620;-85
2022/06/09 01:49:01;;;;;;;0.40;0.30;;;13.70;99.90;;;;;;5095181;28;21002;-85
2022/06/09 01:51:34;;;;;;;0.30;0.20;;;13.60;99.90;;;;;;5103161;28;21098;-85
2022/06/09 01:54:06;;;;;;;0.67;0.67;;;13.60;99.90;;;;;;5098815;28;20626;-85
2022/06/09 01:56:39;;;;;;;0.50;0.30;;;13.60;99.90;;;;;;5107108;28;20612;-86
2022/06/09 01:59:11;;;;;;;0.40;0.20;;;13.60;99.90;;;;;;5103626;28;20622;-85
2022/06/09 02:01:43;;;;;;;2.30;0.40;;;13.50;99.90;;;;;;5087843;28;20682;-84
2022/06/09 02:04:16;;;;;;;0.40;0.30;;;13.60;99.90;;;;;;5097883;28;20655;-85
2022/06/09 02:06:44;;;;;;;0.50;0.47;;;13.60;99.90;;;;;;5103444;28;20648;-85
2022/06/09 02:09:11;;;;;;;0.50;0.50;;;13.50;99.90;;;;;;5108031;28;20627;-85
2022/06/09 02:11:47;;;;;;;0.40;0.30;;;13.50;99.90;;;;;;5098755;28;21228;-85
2022/06/09 02:14:15;;;;;;;0.30;0.20;;;13.40;99.90;;;;;;5100209;28;20643;-85
2022/06/09 02:16:44;;;;;;;0.53;0.53;;;13.40;99.90;;;;;;5089922;28;20734;-84
2022/06/09 02:19:10;;;;;;;0.40;0.30;;;13.40;99.90;;;;;;5098117;28;21026;-85
2022/06/09 02:21:39;;;;;;;0.50;0.50;;;13.50;99.90;;;;;;5108027;28;20693;-85
2022/06/09 02:24:06;;;;;;;0.40;0.30;;;13.60;99.90;;;;;;5101260;28;20627;-84
2022/06/09 02:26:33;;;;;;;0.33;0.33;;;13.40;99.90;;;;;;5107051;28;20663;-85
2022/06/09 02:29:00;;;;;;;0.60;0.40;;;13.50;99.90;;;;;;5099358;28;20663;-84
2022/06/09 02:31:28;;;;;;;0.50;0.30;;;13.40;99.90;;;;;;5111887;28;20672;-86
2022/06/09 02:33:56;;;;;;;0.63;0.40;;;13.40;99.90;;;;;;5105766;28;20641;-85
2022/06/09 02:36:24;;;;;;;0.50;0.40;;;13.40;99.90;;;;;;5092868;28;20684;-85
2022/06/09 02:38:51;;;;;;;0.50;0.50;;;13.30;99.90;;;;;;5095145;28;20623;-84
2022/06/09 02:41:19;;;;;;;1.47;0.70;;;13.30;99.90;;;;;;5103453;28;20635;-85
2022/06/09 02:43:46;;;;;;;0.60;0.60;;;13.30;99.90;;;;;;5099137;28;21406;-84
2022/06/09 02:46:13;;;;;;;0.37;0.30;;;13.20;99.90;;;;;;5110039;28;21084;-85
2022/06/09 02:48:41;;;;;;;0.40;0.30;;;13.20;99.90;;;;;;5099298;28;20673;-84
2022/06/09 02:51:22;;;;;;;0.80;0.57;;;13.20;99.90;;;;;;5100074;28;21023;-85
2022/06/09 02:53:49;;;;;;;0.97;0.70;;;13.20;99.90;;;;;;5092328;28;20731;-85
2022/06/09 02:56:17;;;;;;;0.67;0.67;;;13.20;99.90;;;;;;5090400;28;20632;-85
2022/06/09 02:58:43;;;;;;;0.40;0.37;;;13.20;99.90;;;;;;5102448;28;20711;-84
2022/06/09 03:01:11;;;;;;;0.53;0.50;;;13.20;99.90;;;;;;5111097;28;20623;-84
2022/06/09 03:03:38;;;;;;;2.40;0.60;;;13.20;99.90;;;;;;5105941;28;20716;-84
2022/06/09 03:06:05;;;;;;;0.50;0.50;;;13.20;99.90;;;;;;5110314;28;20634;-84
2022/06/09 03:08:34;;;;;;;0.83;0.83;;;13.20;99.90;;;;;;5111116;28;20611;-84
2022/06/09 03:11:01;;;;;;;0.60;0.57;;;13.20;99.90;;;;;;5092333;28;20644;-84
2022/06/09 03:13:28;;;;;;;0.83;0.50;;;13.20;99.90;;;;;;5101532;28;21027;-84
2022/06/09 03:15:55;;;;;;;0.93;0.50;;;13.10;99.90;;;;;;5096311;28;20724;-84
2022/06/09 03:18:23;;;;;;;0.63;0.40;;;13.20;99.90;;;;;;5096275;28;20697;-84
2022/06/09 03:20:50;;;;;;;0.57;0.40;;;13.20;99.90;;;;;;5103029;27;20638;-85
2022/06/09 03:23:17;;;;;;;0.70;0.67;;;13.10;99.90;;;;;;5096811;28;20701;-84
2022/06/09 03:25:46;;;;;;;0.50;0.40;;;13.20;99.90;;;;;;5110118;28;20616;-84
2022/06/09 03:28:13;;;;;;;0.40;0.40;;;13.10;99.90;;;;;;5110547;28;20727;-84
2022/06/09 03:30:39;;;;;;;0.60;0.60;;;13.20;99.90;;;;;;5108285;28;20679;-84
2022/06/09 03:33:07;;;;;;;0.63;0.40;;;13.20;99.90;;;;;;5094315;28;21244;-84
2022/06/09 03:35:34;;;;;;;0.87;0.43;;;13.10;99.90;;;;;;5096410;28;20744;-84
2022/06/09 03:38:01;;;;;;;2.53;0.67;;;13.20;99.90;;;;;;5095792;28;20636;-84
2022/06/09 03:40:31;;;;;;;0.60;0.60;;;13.20;99.90;;;;;;5095583;28;20739;-84
2022/06/09 03:43:02;;;;;;;0.43;0.43;;;13.10;99.90;;;;;;5090607;28;20651;-84
2022/06/09 03:45:29;;;;;;;0.40;0.40;;;13.10;99.90;;;;;;5100825;28;21060;-84
2022/06/09 03:47:56;;;;;;;0.57;0.57;;;13.10;99.90;;;;;;5110715;28;20673;-84
2022/06/09 03:50:25;;;;;;;0.37;0.30;;;13.10;99.90;;;;;;5109759;28;21027;-84
2022/06/09 03:52:51;;;;;;;0.70;0.70;;;13.20;99.90;;;;;;5110436;28;20743;-84
2022/06/09 03:55:19;;;;;;;2.20;0.77;;;13.10;99.90;;;;;;5109088;27;20658;-83
2022/06/09 03:57:46;;;;;;;0.67;0.67;;;13.10;99.90;;;;;;5096303;28;20704;-84
2022/06/09 04:00:18;;;;;;;0.70;0.57;;;13.10;99.90;;;;;;5109101;28;20631;-84
2022/06/09 04:02:45;;;;;;;0.60;0.40;;;13.10;99.90;;;;;;5101813;28;20743;-85
2022/06/09 04:05:13;;;;;;;0.60;0.60;;;12.90;99.90;;;;;;5107631;28;21061;-84
2022/06/09 04:07:40;;;;;;;5.13;0.90;;;13.20;99.90;;;;;;5106966;28;20735;-85
2022/06/09 04:10:08;;;;;;;3.50;1.03;;;13.20;99.90;;;;;;5099578;28;20649;-84
2022/06/09 04:12:35;;;;;;;1.30;1.13;;;13.20;99.90;;;;;;5091401;28;21082;-84
2022/06/09 04:15:02;;;;;;;1.07;0.80;;;13.20;99.90;;;;;;5105126;28;21040;-84
2022/06/09 04:17:30;;;;;;;0.43;0.43;;;13.20;99.90;;;;;;5090229;28;20661;-84
2022/06/09 04:19:57;;;;;;;0.67;0.60;;;13.20;99.90;;;;;;5096674;28;20719;-84
2022/06/09 04:22:26;;;;;;;0.63;0.63;;;13.20;99.90;;;;;;5101292;28;20660;-84
2022/06/09 04:24:52;;;;;;;0.60;0.60;;;13.10;99.90;;;;;;5109171;27;20726;-85
2022/06/09 04:27:19;;;;;;;1.53;1.27;;;13.10;99.90;;;;;;5105191;28;20670;-84
2022/06/09 04:29:46;;;;;;;0.60;0.50;;;13.20;99.90;;;;;;5097745;28;20719;-85
2022/06/09 04:32:13;;;;;;;0.50;0.40;;;13.20;99.90;;;;;;5098083;28;20632;-84
2022/06/09 04:34:42;;;;;;;0.80;0.80;;;13.10;99.90;;;;;;5095416;28;20751;-84
2022/06/09 04:37:09;;;;;;;0.80;0.80;;;13.10;99.90;;;;;;5097466;28;20645;-84
2022/06/09 04:39:36;;;;;;;0.82;0.60;;;13.20;99.90;;;;;;5088940;28;20772;-84
2022/06/09 04:42:03;;;;;;;2.10;1.30;;;13.20;99.90;;;;;;5106071;28;20860;-84
2022/06/09 04:44:30;;;;;;;1.57;1.20;;;13.10;99.90;;;;;;5090981;28;21082;-84
2022/06/09 04:46:57;;;;;;;1.17;1.17;;;13.10;99.90;;;;;;5102024;28;20681;-84
2022/06/09 04:49:24;;;;;;;2.13;1.33;;;13.10;99.90;;;;;;5092158;28;21194;-84
2022/06/09 04:51:52;;;;;;;1.87;1.77;;;13.00;99.90;;;;;;5099627;28;20736;-84
2022/06/09 04:54:19;;;;;;;0.87;0.80;;;13.00;99.90;;;;;;5087539;28;20705;-85
2022/06/09 04:56:46;;;;;;;0.63;0.63;;;13.00;99.90;;;;;;5104961;28;21016;-84
2022/06/09 04:59:13;;;;;;;0.57;0.40;;;12.90;99.90;;;;;;5088557;28;20673;-84
2022/06/09 05:01:40;;;;;;;0.80;0.80;;;12.90;99.90;;;;;;5106213;28;20714;-84
2022/06/09 05:04:07;;;;;;;0.90;0.90;;;12.80;99.90;;;;;;5088737;28;21066;-85
2022/06/09 05:06:33;;;;;;;0.40;0.40;;;12.80;99.90;;;;;;5104955;28;20623;-85
2022/06/09 05:09:02;;;;;;;0.50;0.50;;;12.80;99.90;;;;;;5106912;28;20840;-85
2022/06/09 05:11:29;;;;;;;1.43;0.60;;;12.80;99.90;;;;;;5092938;28;21238;-85
2022/06/09 05:13:56;;;;;;;0.50;0.50;;;12.80;99.90;;;;;;5091168;28;20766;-84
2022/06/09 05:16:22;;;;;;;2.20;0.53;;;12.90;99.90;;;;;;5100819;28;21229;-84
2022/06/09 05:18:50;;;;;;;0.97;0.70;;;12.90;99.90;;;;;;5089452;28;20723;-84
2022/06/09 05:21:17;;;;;;;4.63;0.70;;;12.90;99.90;;;;;;5102428;28;20982;-84
2022/06/09 05:23:44;;;;;;;0.60;0.60;;;12.90;99.90;;;;;;5107376;28;20750;-84
2022/06/09 05:26:15;;;;;;;0.70;0.70;;;13.00;99.90;;;;;;5099533;28;20731;-84
2022/06/09 05:28:41;;;;;;;0.70;0.57;;;13.00;99.90;;;;;;5106462;28;20627;-83
2022/06/09 05:31:08;;;;;;;1.30;0.93;;;13.00;99.90;;;;;;5095872;28;20735;-85
2022/06/09 05:33:35;;;;;;;2.77;0.70;;;13.10;99.90;;;;;;5088339;28;20720;-83
2022/06/09 05:36:02;;;;;;;0.60;0.60;;;13.20;99.90;;;;;;5087473;28;20639;-84
2022/06/09 05:46:47;;;;;;;0.80;0.60;;;13.70;99.90;;;;;;5093513;28;20672;-84
2022/06/09 05:49:14;;;;;;;0.70;0.50;;;13.70;99.90;;;;;;5091654;28;20700;-84
2022/06/09 05:51:41;;;;;;;1.37;1.30;;;13.70;99.90;;;;;;5099672;28;20651;-84
2022/06/09 05:54:09;;;;;;;2.03;0.80;;;13.80;99.90;;;;;;5090583;28;20621;-83
2022/06/09 05:56:38;;;;;;;0.60;0.60;;;13.90;99.90;;;;;;5087800;28;20628;-84
2022/06/09 05:59:04;;;;;;;0.47;0.47;;;14.00;99.90;;;;;;5106504;28;20738;-84
2022/06/09 06:01:31;;;;;;;0.50;0.50;;;14.20;99.90;;;;;;5092090;28;20620;-84
2022/06/09 06:03:58;;;;;;;0.40;0.40;;;14.30;99.90;;;;;;5091727;28;21038;-84
2022/06/09 06:06:34;;;;;;;0.90;0.90;;;14.20;99.90;;;;;;5092723;28;20631;-84
2022/06/09 06:09:02;;;;;;;1.10;0.50;;;14.20;99.90;;;;;;5101365;28;20672;-84
2022/06/09 06:11:29;;;;;;;0.80;0.80;;;14.20;99.90;;;;;;5106252;27;20708;-84
2022/06/09 06:14:00;;;;;;;0.80;0.63;;;14.20;99.90;;;;;;5111023;27;20676;-84
2022/06/09 06:16:27;;;;;;;1.03;0.70;;;14.30;99.90;;;;;;5110394;28;20632;-84
2022/06/09 06:18:54;;;;;;;0.83;0.83;;;14.30;99.90;;;;;;5091495;28;21040;-85
2022/06/09 06:21:21;;;;;;;0.73;0.70;;;14.20;99.90;;;;;;5092098;28;20637;-84
2022/06/09 06:23:48;;;;;;;0.63;0.57;;;14.30;99.90;;;;;;5100468;28;20778;-85
2022/06/09 06:26:16;;;;;;;0.60;0.60;;;14.50;99.90;;;;;;5110163;28;20611;-84
2022/06/09 06:28:43;;;;;;;0.90;0.90;;;14.50;99.90;;;;;;5104635;28;21039;-84
2022/06/09 06:31:11;;;;;;;0.50;0.50;;;14.60;99.90;;;;;;5092049;28;20620;-84
2022/06/09 06:33:38;;;;;;;0.70;0.70;;;14.60;99.90;;;;;;5101558;28;20730;-83
2022/06/09 06:36:06;;;;;;;0.50;0.43;;;14.60;99.90;;;;;;5106340;28;20708;-84
2022/06/09 06:38:33;;;;;;;1.00;0.73;;;14.70;99.90;;;;;;5095750;28;20716;-85
2022/06/09 06:41:00;;;;;;;0.67;0.50;;;14.80;99.90;;;;;;5101868;28;21006;-84
2022/06/09 06:43:27;;;;;;;0.93;0.80;;;15.00;99.90;;;;;;5110626;28;20647;-84
2022/06/09 06:45:54;;;;;;;0.90;0.53;;;15.00;99.90;;;;;;5103877;28;20631;-84
2022/06/09 06:48:22;;;;;;;0.63;0.63;;;15.10;99.90;;;;;;5104359;28;20726;-84
2022/06/09 06:50:49;;;;;;;0.60;0.50;;;15.00;99.90;;;;;;5106300;27;20656;-85
2022/06/09 06:53:17;;;;;;;0.70;0.70;;;15.00;99.90;;;;;;5092542;28;21236;-84
2022/06/09 06:55:45;;;;;;;0.80;0.77;;;15.10;99.90;;;;;;5095726;28;20984;-84
2022/06/09 06:58:12;;;;;;;0.63;0.63;;;15.30;99.90;;;;;;5096677;28;20715;-85
2022/06/09 07:00:39;;;;;;;1.13;0.80;;;15.50;99.90;;;;;;5105892;28;21236;-84
2022/06/09 07:03:08;;;;;;;0.67;0.67;;;15.50;99.90;;;;;;5094422;28;21052;-83
2022/06/09 07:05:36;;;;;;;0.70;0.60;;;15.70;99.90;;;;;;5099957;28;20624;-84
2022/06/09 07:08:15;;;;;;;0.40;0.27;;;15.80;99.90;;;;;;5102341;28;21207;-84
2022/06/09 07:10:43;;;;;;;0.60;0.50;;;15.70;99.90;;;;;;5105501;28;20723;-84
2022/06/09 07:13:09;;;;;;;0.50;0.50;;;15.70;99.90;;;;;;5104176;28;20618;-84
2022/06/09 07:15:36;;;;;;;0.40;0.40;;;15.60;99.90;;;;;;5109746;28;20623;-85
2022/06/09 07:18:04;;;;;;;0.80;0.37;;;15.60;99.70;;;;;;5109541;28;20770;-83
2022/06/09 07:20:31;;;;;;;0.73;0.50;;;15.60;99.90;;;;;;5094503;28;20626;-84
2022/06/09 07:22:59;;;;;;;0.40;0.33;;;15.50;99.60;;;;;;5108667;28;20659;-84
2022/06/09 07:25:27;;;;;;;0.87;0.80;;;15.50;99.90;;;;;;5109623;28;20651;-84
2022/06/09 07:27:55;;;;;;;1.20;0.60;;;15.50;99.90;;;;;;5110071;28;21201;-84
2022/06/09 07:39:05;;;;;;;;;;;;;;;;;;;;;
2022/06/09 07:42:00;;;;;;;1.00;0.80;;;15.90;99.50;;;;;;4891675;29;21251;-84
2022/06/09 08:13:46;;;;;;;0.33;0.33;;;16.60;97.30;;;;;;4899961;29;20617;-86
2022/06/09 08:17:00;;;;;;;0.53;0.43;;;16.60;96.90;;;;;;4926155;28;20632;-86
2022/06/09 08:26:30;;;;;;;0.50;0.40;;;16.70;96.50;;;;;;5078189;28;20632;-85
2022/06/09 08:29:52;;;;;;;4.27;0.60;;;16.50;95.30;;;;;;5102554;28;20627;-84
2022/06/09 08:39:56;;;;;;;0.47;0.30;;;16.80;95.20;;;;;;5004541;28;20618;-86
2022/06/09 08:43:30;;;;;;;3.30;1.07;;;18.20;96.20;;;;;;5075410;28;20689;-84
2022/06/09 08:47:22;;;;;;;1.10;1.00;;;17.20;93.90;;;;;;5022955;28;20726;-87
2022/06/09 08:49:59;;;;;;;0.40;0.30;;;16.70;92.60;;;;;;5000534;28;21212;-86
2022/06/09 08:52:38;;;;;;;0.30;0.20;;;17.20;92.60;;;;;;5085619;28;20632;-86
2022/06/09 08:55:18;;;;;;;0.33;0.33;;;17.60;91.70;;;;;;5096598;28;20666;-83
2022/06/09 08:57:46;;;;;;;0.60;0.60;;;17.30;92.50;;;;;;5100045;28;20700;-84
2022/06/09 09:00:16;;;;;;;0.60;0.40;;;17.40;93.00;;;;;;5092335;28;21238;-84
2022/06/09 09:02:49;;;;;;;0.60;0.60;;;17.60;91.90;;;;;;5107945;28;21263;-84
2022/06/09 09:05:20;;;;;;;0.43;0.33;;;17.80;90.70;;;;;;5106643;28;20773;-84
2022/06/09 09:07:49;;;;;;;0.30;0.30;;;17.70;91.60;;;;;;5097728;28;21023;-83
2022/06/09 09:10:23;;;;;;;0.60;0.30;;;17.60;92.10;;;;;;5098019;27;20686;-84
2022/06/09 09:13:08;;;;;;;0.30;0.30;;;17.30;91.30;;;;;;5092645;28;20619;-84
2022/06/09 09:15:41;;;;;;;0.80;0.40;;;17.30;92.80;;;;;;5107228;28;21109;-84
2022/06/09 09:18:24;;;;;;;0.50;0.50;;;17.40;92.80;;;;;;5110049;27;20627;-83
2022/06/09 09:21:02;;;;;;;0.30;0.30;;;17.50;92.60;;;;;;5108609;28;20996;-84
2022/06/09 09:23:39;;;;;;;0.77;0.47;;;17.80;91.70;;;;;;5108565;28;20711;-84
2022/06/09 09:26:16;;;;;;;0.40;0.30;;;17.80;90.50;;;;;;5105001;28;20656;-84
2022/06/09 09:28:48;;;;;;;0.30;0.30;;;18.00;92.80;;;;;;5103033;28;20615;-84
2022/06/09 09:31:24;;;;;;;0.50;0.50;;;17.90;91.70;;;;;;5107057;28;20745;-84
2022/06/09 09:33:51;;;;;;;0.97;0.97;;;17.70;90.30;;;;;;5107019;28;20622;-84
2022/06/09 09:36:22;;;;;;;0.40;0.40;;;18.00;91.20;;;;;;5094815;28;20723;-83
2022/06/09 09:38:55;;;;;;;0.30;0.30;;;18.40;91.00;;;;;;5090019;28;21062;-84
2022/06/09 09:41:33;;;;;;;0.40;0.40;;;18.20;90.40;;;;;;5101631;28;21236;-84
2022/06/09 09:44:01;;;;;;;1.03;0.70;;;18.10;90.60;;;;;;5107645;28;20619;-84
2022/06/09 09:46:32;;;;;;;0.40;0.40;;;18.40;91.80;;;;;;5102714;28;20648;-84
2022/06/09 09:49:15;;;;;;;0.40;0.40;;;18.40;89.70;;;;;;5087943;28;20627;-84
2022/06/09 09:51:43;;;;;;;0.60;0.50;;;18.50;90.70;;;;;;5093637;28;21189;-84
2022/06/09 09:54:19;;;;;;;1.33;0.40;;;18.80;89.90;;;;;;5086673;28;21270;-85
2022/06/09 09:56:48;;;;;;;0.50;0.37;;;19.10;90.10;;;;;;5098541;28;20616;-84
2022/06/09 09:59:23;;;;;;;0.40;0.40;;;18.60;88.20;;;;;;5107897;28;20624;-84
2022/06/09 10:10:15;;;;;;;0.40;0.40;;;18.60;86.70;;;;;;5102360;28;20619;-85
2022/06/09 10:12:45;;;;;;;0.63;0.50;;;18.50;87.60;;;;;;5093877;28;20628;-84
2022/06/09 10:15:18;;;;;;;0.30;0.30;;;18.60;91.60;;;;;;5103878;28;20722;-85
2022/06/09 10:17:57;;;;;;;1.27;0.60;;;19.10;91.10;;;;;;5093456;28;20629;-85
2022/06/09 10:20:33;;;;;;;0.70;0.60;;;19.70;91.10;;;;;;5087683;28;20728;-84
2022/06/09 10:23:18;;;;;;;0.50;0.50;;;19.90;86.70;;;;;;5098529;28;21224;-85
2022/06/09 10:25:54;;;;;;;0.73;0.30;;;20.00;87.20;;;;;;5107199;28;20643;-85
2022/06/09 10:28:34;;;;;;;0.63;0.63;;;20.00;87.10;;;;;;5107680;28;21040;-85
2022/06/09 10:31:06;;;;;;;0.40;0.30;;;19.70;84.50;;;;;;5108159;28;20630;-84
2022/06/09 10:33:38;;;;;;;1.13;0.60;;;19.40;85.20;;;;;;5106501;28;21192;-85
2022/06/09 10:36:12;;;;;;;0.40;0.40;;;19.30;83.50;;;;;;5103487;28;20600;-85
2022/06/09 10:38:47;;;;;;;0.40;0.30;;;19.00;84.90;;;;;;5098504;28;20623;-86
2022/06/09 10:41:16;;;;;;;0.40;0.33;;;18.70;85.40;;;;;;5107919;28;20676;-85
2022/06/09 10:43:50;;;;;;;0.60;0.50;;;18.20;85.30;;;;;;5108158;28;20599;-85
2022/06/09 10:46:30;;;;;;;0.47;0.47;;;18.40;89.00;;;;;;5107299;28;20655;-86
2022/06/09 10:55:19;;;;;;;0.97;0.53;;;19.60;83.90;;;;;;5095933;28;20620;-84
2022/06/09 10:57:55;;;;;;;0.50;0.50;;;19.20;85.70;;;;;;5101798;28;20640;-86
2022/06/09 11:00:28;;;;;;;0.40;0.40;;;18.80;86.50;;;;;;5101463;28;21032;-85
2022/06/09 11:02:57;;;;;;;0.50;0.40;;;19.50;85.40;;;;;;5096253;28;20635;-84
2022/06/09 11:05:40;;;;;;;0.50;0.40;;;20.10;84.40;;;;;;5098866;28;20759;-86
2022/06/09 11:08:14;;;;;;;0.80;0.50;;;20.20;79.40;;;;;;5105561;28;20714;-85
2022/06/09 11:10:53;;;;;;;0.77;0.70;;;20.50;78.20;;;;;;5096993;28;20673;-85
2022/06/09 11:13:33;;;;;;;0.80;0.70;;;20.60;77.30;;;;;;5096220;28;20678;-85
2022/06/09 11:16:11;;;;;;;0.37;0.37;;;20.00;78.60;;;;;;5091977;28;20693;-85
2022/06/09 11:18:44;;;;;;;0.43;0.40;;;20.10;73.60;;;;;;5091327;27;20705;-85
2022/06/09 11:21:18;;;;;;;1.20;0.47;;;20.10;71.10;;;;;;5093547;28;20731;-85
2022/06/09 11:24:02;;;;;;;0.37;0.37;;;19.90;75.80;;;;;;5111005;28;20813;-85
2022/06/09 11:26:36;;;;;;;0.87;0.60;;;19.60;77.80;;;;;;5108316;28;20750;-85
2022/06/09 11:29:17;;;;;;;1.63;0.87;;;19.70;77.60;;;;;;5104410;28;20643;-85
2022/06/09 11:31:54;;;;;;;0.30;0.30;;;19.60;77.00;;;;;;5091178;28;20624;-85
2022/06/09 11:34:42;;;;;;;0.47;0.47;;;19.40;77.50;;;;;;5107019;28;20630;-85
2022/06/09 11:37:19;;;;;;;0.80;0.77;;;19.20;79.70;;;;;;5097222;28;20988;-86
2022/06/09 11:39:57;;;;;;;0.60;0.50;;;19.30;77.70;;;;;;5100447;28;20623;-86
2022/06/09 11:42:37;;;;;;;1.50;0.50;;;19.00;77.40;;;;;;5089785;28;20620;-84
2022/06/09 11:45:31;;;;;;;0.40;0.40;;;19.20;78.50;;;;;;5109975;28;20677;-84
2022/06/09 11:48:03;;;;;;;0.80;0.50;;;19.80;80.30;;;;;;5097897;28;20631;-85
2022/06/09 11:50:39;;;;;;;0.90;0.53;;;20.30;72.70;;;;;;5098257;28;20722;-85
2022/06/09 11:53:07;;;;;;;0.50;0.50;;;21.10;77.80;;;;;;5109194;28;21008;-86
2022/06/09 11:58:42;;;;;;;1.27;0.70;;;21.70;72.80;;;;;;5093429;28;21193;-86
2022/06/09 12:01:26;;;;;;;1.10;1.10;;;21.30;74.20;;;;;;5106473;28;20722;-86
2022/06/09 12:04:07;;;;;;;0.50;0.50;;;20.80;73.80;;;;;;5094380;28;20750;-85
2022/06/09 12:06:50;;;;;;;0.50;0.40;;;20.50;71.10;;;;;;5108272;28;20750;-85
2022/06/09 12:09:27;;;;;;;1.57;0.50;;;20.20;75.40;;;;;;5096154;28;20651;-86
2022/06/09 12:11:58;;;;;;;0.53;0.40;;;20.70;79.40;;;;;;5097828;28;20627;-86
2022/06/09 12:14:29;;;;;;;1.50;0.80;;;21.10;68.50;;;;;;5109707;28;20628;-86
2022/06/09 12:17:05;;;;;;;0.50;0.50;;;22.80;71.40;;;;;;5109567;28;20623;-86
2022/06/09 12:19:37;;;;;;;0.93;0.53;;;24.20;70.60;;;;;;5089713;28;20647;-85
2022/06/09 12:22:45;;;;;;;0.57;0.57;;;24.80;65.60;;;;;;5091654;28;20672;-85
2022/06/09 12:25:33;;;;;;;1.20;0.90;;;24.00;66.30;;;;;;5106349;28;21202;-85
2022/06/09 12:28:03;;;;;;;0.70;0.70;;;22.60;67.50;;;;;;5103735;28;20627;-85
2022/06/09 12:30:37;;;;;;;3.40;0.60;;;23.40;64.70;;;;;;5102921;28;20653;-86
2022/06/09 12:33:29;;;;;;;0.40;0.40;;;24.80;65.90;;;;;;5098776;28;20619;-85
2022/06/09 12:36:02;;;;;;;0.70;0.70;;;25.70;61.30;;;;;;5097807;28;20712;-86
2022/06/09 12:38:33;;;;;;;0.50;0.40;;;26.10;58.40;;;;;;5097715;28;21280;-85
2022/06/09 12:41:02;;;;;;;0.80;0.60;;;26.10;59.20;;;;;;5101455;28;20659;-86
2022/06/09 12:43:35;;;;;;;0.70;0.70;;;26.00;59.60;;;;;;5109488;28;20630;-86
2022/06/09 12:46:17;;;;;;;0.40;0.40;;;26.80;57.70;;;;;;5101602;28;20759;-86
2022/06/09 12:48:45;;;;;;;0.90;0.70;;;27.30;58.10;;;;;;5106785;28;20715;-86
2022/06/09 12:51:20;;;;;;;2.30;0.50;;;27.10;55.80;;;;;;5108200;27;20730;-87
2022/06/09 12:53:55;;;;;;;0.50;0.43;;;26.90;53.20;;;;;;5108795;28;20739;-88
2022/06/09 12:56:27;;;;;;;0.80;0.80;;;27.50;54.70;;;;;;5106161;28;20718;-86
2022/06/09 12:58:56;;;;;;;1.33;0.60;;;27.30;53.60;;;;;;5108143;28;21245;-85
2022/06/09 13:01:26;;;;;;;0.80;0.70;;;27.60;55.80;;;;;;5096633;28;21251;-87
2022/06/09 13:03:57;;;;;;;0.40;0.40;;;28.10;53.30;;;;;;5089646;28;20729;-87
2022/06/09 13:06:29;;;;;;;0.73;0.73;;;28.50;54.80;;;;;;5103223;28;20655;-87
2022/06/09 13:08:59;;;;;;;0.47;0.47;;;28.80;52.50;;;;;;5106871;28;21197;-86
2022/06/09 13:14:22;;;;;;;0.50;0.47;;;26.90;51.30;;;;;;5086868;28;20604;-88
2022/06/09 13:16:54;;;;;;;0.50;0.40;;;26.90;51.10;;;;;;5092284;28;20616;-87
2022/06/09 13:19:24;;;;;;;0.40;0.40;;;27.90;52.10;;;;;;5099135;28;20593;-86
2022/06/09 13:21:53;;;;;;;3.50;0.60;;;28.00;51.40;;;;;;5088049;28;20647;-85
2022/06/09 13:24:30;;;;;;;0.67;0.60;;;29.10;51.60;;;;;;5098912;28;20643;-86
2022/06/09 13:26:58;;;;;;;0.60;0.60;;;29.80;50.90;;;;;;5103280;28;21129;-86
2022/06/09 13:29:29;;;;;;;0.60;0.60;;;30.80;49.70;;;;;;5088004;28;20694;-85
2022/06/09 13:32:12;;;;;;;0.53;0.50;;;30.50;46.10;;;;;;5105595;28;21108;-86
2022/06/09 13:34:44;;;;;;;0.80;0.67;;;29.70;48.80;;;;;;5094099;28;20709;-88
2022/06/09 13:37:15;;;;;;;1.00;0.90;;;29.90;47.20;;;;;;5096143;28;20718;-86
2022/06/09 13:39:51;;;;;;;0.70;0.60;;;30.20;48.30;;;;;;5108281;28;20665;-86
2022/06/09 13:42:24;;;;;;;1.33;0.50;;;29.90;47.70;;;;;;5089232;28;20673;-86
2022/06/09 13:45:15;;;;;;;0.50;0.50;;;29.70;49.50;;;;;;5108566;28;20619;-87
2022/06/09 13:48:01;;;;;;;0.50;0.50;;;29.00;49.60;;;;;;5104106;28;20619;-88
2022/06/09 13:50:35;;;;;;;1.37;0.70;;;27.30;48.50;;;;;;5095258;28;20719;-87
2022/06/09 13:53:26;;;;;;;0.60;0.60;;;26.00;52.10;;;;;;5108371;28;20619;-88
2022/06/09 13:55:53;;;;;;;0.60;0.60;;;25.10;52.20;;;;;;5106337;28;20624;-88
2022/06/09 13:58:20;;;;;;;0.93;0.77;;;24.00;54.50;;;;;;5102894;28;20719;-87
2022/06/09 14:00:51;;;;;;;0.87;0.87;;;22.70;54.70;;;;;;5100310;28;20967;-86
2022/06/09 14:03:22;;;;;;;0.83;0.60;;;22.60;54.80;;;;;;5095572;28;20630;-87
2022/06/09 14:05:53;;;;;;;0.53;0.53;;;23.10;55.80;;;;;;5107822;28;20802;-86
2022/06/09 14:08:22;;;;;;;0.67;0.67;;;22.40;53.60;;;;;;5105487;28;21206;-85
2022/06/09 14:10:49;;;;;;;0.67;0.67;;;21.80;55.40;;;;;;5093341;28;20627;-85
2022/06/09 14:13:17;;;;;;;0.90;0.60;;;21.50;55.50;;;;;;5096912;28;20628;-86
2022/06/09 14:15:46;;;;;;;1.27;0.70;;;21.10;56.50;;;;;;5091542;28;20660;-87
2022/06/09 14:18:19;;;;;;;0.50;0.50;;;20.70;57.70;;;;;;5095078;28;20651;-88
2022/06/09 14:20:46;;;;;;;0.80;0.70;;;20.60;59.60;;;;;;5107925;28;20619;-85
2022/06/09 14:23:25;;;;;;;0.60;0.50;;;20.10;60.50;;;;;;5108769;28;20628;-87
2022/06/09 14:25:58;;;;;;;0.77;0.77;;;20.00;61.50;;;;;;5106635;28;20656;-87
2022/06/09 14:28:25;;;;;;;0.60;0.57;;;19.70;63.00;;;;;;5110377;28;20731;-86
2022/06/09 14:30:51;;;;;;;0.60;0.57;;;19.80;62.80;;;;;;5104180;28;21174;-88
2022/06/09 14:33:19;;;;;;;1.37;0.60;;;20.00;61.60;;;;;;5101355;28;21219;-87
2022/06/09 14:35:45;;;;;;;0.60;0.50;;;20.70;60.20;;;;;;5095327;28;20660;-88